Time;durP1;ratioP1;P1;durP2;ratioP2;P2;SDS_P1;SDS_P2;PMS_P1;PMS_P2;Temp;Humidity;BMP_temperature;BMP_pressure;BME280_temperature;BME280_humidity;BME280_pressure;Samples;Min_cycle;Max_cycle;Signal;HPM_P1;HPM_P2
2022/10/30 00:01:54;;;;;;;16.33;9.00;;;;;;;13.00;100.00;101666.41;5092174;28;20055;-74
2022/10/30 00:04:19;;;;;;;19.88;9.85;;;;;;;13.03;100.00;101668.13;5092978;28;20027;-74
2022/10/30 00:06:44;;;;;;;19.60;9.30;;;;;;;12.92;100.00;101665.72;5092125;28;20024;-74
2022/10/30 00:09:09;;;;;;;18.92;9.30;;;;;;;12.93;100.00;101663.97;5092688;28;20391;-74
2022/10/30 00:11:35;;;;;;;19.27;9.30;;;;;;;12.96;100.00;101677.00;5092852;28;20055;-74
2022/10/30 00:14:00;;;;;;;18.08;9.10;;;;;;;12.95;100.00;101670.91;5093616;28;20452;-74
2022/10/30 00:16:26;;;;;;;23.63;9.07;;;;;;;12.96;100.00;101669.13;5094138;28;20480;-74
2022/10/30 00:18:51;;;;;;;20.48;8.75;;;;;;;12.87;100.00;101665.78;5093385;28;20031;-74
2022/10/30 00:21:17;;;;;;;18.92;8.95;;;;;;;12.89;100.00;101666.66;5092038;28;20455;-74
2022/10/30 00:23:47;;;;;;;19.75;8.73;;;;;;;12.87;100.00;101678.03;5092292;28;20024;-74
2022/10/30 00:26:13;;;;;;;20.17;9.15;;;;;;;12.87;100.00;101673.66;5093334;28;20016;-74
2022/10/30 00:28:38;;;;;;;19.35;8.93;;;;;;;12.84;100.00;101667.63;5091551;28;20036;-73
2022/10/30 00:31:04;;;;;;;14.75;8.55;;;;;;;12.82;100.00;101666.81;5094114;28;20550;-74
2022/10/30 00:33:30;;;;;;;25.25;9.35;;;;;;;12.80;100.00;101671.19;5094073;28;20464;-74
2022/10/30 00:35:55;;;;;;;15.10;9.35;;;;;;;12.76;100.00;101657.31;5093152;28;20028;-73
2022/10/30 00:38:21;;;;;;;23.25;9.32;;;;;;;12.73;100.00;101660.00;5093619;28;20035;-73
2022/10/30 00:40:46;;;;;;;16.48;8.70;;;;;;;12.68;100.00;101655.72;5094056;28;20024;-74
2022/10/30 00:43:30;;;;;;;15.38;8.80;;;;;;;12.66;100.00;101658.38;5090939;28;20028;-74
2022/10/30 00:45:59;;;;;;;17.60;9.57;;;;;;;12.64;100.00;101668.00;5092911;28;20043;-73
2022/10/30 00:48:25;;;;;;;15.73;8.90;;;;;;;12.61;100.00;101661.06;5092238;28;20432;-74
2022/10/30 00:50:52;;;;;;;22.40;9.35;;;;;;;12.61;100.00;101654.97;5090847;28;20035;-74
2022/10/30 00:53:20;;;;;;;21.63;8.90;;;;;;;12.59;100.00;101659.41;5091034;28;20111;-74
2022/10/30 00:55:55;;;;;;;19.80;9.18;;;;;;;12.52;100.00;101649.91;5092995;28;20032;-74
2022/10/30 00:58:27;;;;;;;16.92;9.27;;;;;;;12.53;100.00;101657.75;5091928;28;20229;-74
2022/10/30 01:00:55;;;;;;;21.50;9.57;;;;;;;12.52;100.00;101663.00;5092147;28;20027;-74
2022/10/30 01:03:21;;;;;;;20.40;9.38;;;;;;;12.47;100.00;101657.00;5089189;28;20458;-74
2022/10/30 01:05:52;;;;;;;19.60;9.68;;;;;;;12.46;100.00;101658.75;5091174;28;20051;-74
2022/10/30 01:08:18;;;;;;;17.92;9.32;;;;;;;12.42;100.00;101649.22;5091728;28;20050;-74
2022/10/30 01:10:44;;;;;;;21.60;9.23;;;;;;;12.42;100.00;101657.06;5090426;28;20032;-73
2022/10/30 01:13:10;;;;;;;18.02;9.20;;;;;;;12.37;100.00;101653.69;5091663;28;20031;-74
2022/10/30 01:15:44;;;;;;;15.95;9.23;;;;;;;12.38;100.00;101663.25;5092402;28;20379;-74
2022/10/30 01:18:33;;;;;;;19.65;9.32;;;;;;;12.37;100.00;101669.38;5090195;28;20028;-74
2022/10/30 01:21:07;;;;;;;20.50;9.85;;;;;;;12.34;100.00;101667.69;5092678;28;20027;-73
2022/10/30 01:24:14;;;;;;;20.45;9.25;;;;;;;12.31;100.00;101662.50;5091113;28;20477;-74
2022/10/30 01:26:55;;;;;;;19.33;10.35;;;;;;;12.33;100.00;101671.19;5071122;28;20118;-73
2022/10/30 01:29:34;;;;;;;18.33;9.10;;;;;;;12.30;100.00;101671.25;5091039;28;20085;-74
2022/10/30 01:32:36;;;;;;;22.95;9.32;;;;;;;12.27;100.00;101671.28;5091417;28;20060;-74
2022/10/30 01:35:26;;;;;;;15.05;9.23;;;;;;;12.22;100.00;101664.41;5090865;28;20028;-74
2022/10/30 01:38:07;;;;;;;23.38;9.98;;;;;;;12.22;100.00;101667.88;5089880;28;20047;-73
2022/10/30 01:40:32;;;;;;;13.88;9.43;;;;;;;12.23;100.00;101672.25;5090880;28;20105;-73
2022/10/30 01:42:58;;;;;;;18.52;9.43;;;;;;;12.18;100.00;101660.97;5091690;28;20459;-74
2022/10/30 01:45:31;;;;;;;15.93;9.05;;;;;;;12.19;100.00;101674.00;5089921;28;20036;-74
2022/10/30 01:48:31;;;;;;;22.15;10.85;;;;;;;12.20;100.00;101674.91;5088938;28;20044;-74
2022/10/30 01:51:11;;;;;;;15.65;8.70;;;;;;;12.18;100.00;101676.66;5091821;28;20483;-74
2022/10/30 01:53:50;;;;;;;17.50;9.70;;;;;;;12.16;100.00;101681.06;5090471;28;20024;-74
2022/10/30 01:56:34;;;;;;;17.02;9.65;;;;;;;12.13;100.00;101681.09;5089489;28;20024;-74
2022/10/30 01:59:12;;;;;;;25.15;9.57;;;;;;;12.11;100.00;101683.75;5091665;28;20012;-74
2022/10/30 02:01:38;;;;;;;19.48;9.48;;;;;;;12.08;100.00;101686.41;5088525;28;20115;-73
2022/10/30 02:04:07;;;;;;;19.25;9.85;;;;;;;12.04;100.00;101687.34;5091196;28;20024;-74
2022/10/30 02:06:32;;;;;;;21.55;10.10;;;;;;;12.02;100.00;101694.34;5089759;28;20024;-74
2022/10/30 02:08:57;;;;;;;18.13;9.52;;;;;;;12.01;100.00;101694.38;5088604;28;20039;-73
2022/10/30 02:11:25;;;;;;;15.57;9.85;;;;;;;11.98;100.00;101686.59;5091548;28;20024;-74
2022/10/30 02:13:54;;;;;;;17.38;9.90;;;;;;;11.93;100.00;101686.66;5091084;28;20142;-74
2022/10/30 02:16:20;;;;;;;20.17;10.27;;;;;;;11.94;100.00;101683.16;5090370;28;20024;-74
2022/10/30 02:18:45;;;;;;;14.50;9.07;;;;;;;11.82;100.00;101667.66;5090714;28;20024;-74
2022/10/30 02:21:10;;;;;;;17.70;9.25;;;;;;;11.88;100.00;101686.72;5090873;28;20385;-74
2022/10/30 02:23:36;;;;;;;21.25;9.60;;;;;;;11.88;100.00;101693.72;5090232;28;20080;-74
2022/10/30 02:26:02;;;;;;;21.77;10.43;;;;;;;11.85;100.00;101694.63;5090570;28;20153;-74
2022/10/30 02:28:27;;;;;;;13.88;9.15;;;;;;;11.82;100.00;101697.25;5090523;28;20035;-74
2022/10/30 02:30:52;;;;;;;19.48;9.43;;;;;;;11.83;100.00;101696.34;5090933;28;20360;-73
2022/10/30 02:33:17;;;;;;;18.70;9.35;;;;;;;11.79;100.00;101684.22;5091202;28;20027;-74
2022/10/30 02:35:43;;;;;;;20.48;9.80;;;;;;;11.82;100.00;101693.78;5091159;28;20562;-74
2022/10/30 02:38:08;;;;;;;24.50;9.93;;;;;;;11.72;100.00;101683.44;5090637;28;20024;-74
2022/10/30 02:40:33;;;;;;;17.33;9.57;;;;;;;11.77;100.00;101696.47;5090225;28;20491;-74
2022/10/30 02:42:59;;;;;;;24.05;10.05;;;;;;;11.78;100.00;101702.53;5088973;28;20028;-74
2022/10/30 02:45:24;;;;;;;20.48;10.38;;;;;;;11.73;100.00;101693.00;5088843;28;20028;-74
2022/10/30 02:47:49;;;;;;;17.13;9.55;;;;;;;11.75;100.00;101700.84;5092114;28;20036;-73
2022/10/30 02:50:15;;;;;;;19.65;9.90;;;;;;;11.75;100.00;101700.84;5093400;28;20036;-74
2022/10/30 02:52:40;;;;;;;16.40;9.85;;;;;;;11.71;100.00;101693.94;5094216;28;20125;-74
2022/10/30 02:55:05;;;;;;;16.92;10.38;;;;;;;11.71;100.00;101697.41;5094498;28;20494;-73
2022/10/30 02:57:31;;;;;;;20.95;9.55;;;;;;;11.70;100.00;101700.88;5091595;28;20036;-74
2022/10/30 02:59:56;;;;;;;20.58;10.38;;;;;;;11.68;100.00;101700.06;5095505;28;20383;-74
2022/10/30 03:02:21;;;;;;;20.55;10.13;;;;;;;11.64;100.00;101694.88;5091627;28;20024;-74
2022/10/30 03:04:47;;;;;;;19.55;9.82;;;;;;;11.57;100.00;101682.81;5093310;28;20036;-74
2022/10/30 03:07:12;;;;;;;21.48;10.43;;;;;;;11.59;100.00;101683.66;5094567;28;20070;-74
2022/10/30 03:09:37;;;;;;;19.70;9.90;;;;;;;11.56;100.00;101691.53;5093480;28;20372;-74
2022/10/30 03:12:03;;;;;;;18.70;9.82;;;;;;;11.55;100.00;101692.44;5092050;28;20081;-74
2022/10/30 03:14:28;;;;;;;19.48;9.77;;;;;;;11.48;100.00;101676.84;5093027;28;20028;-74
2022/10/30 03:16:53;;;;;;;20.33;10.48;;;;;;;11.49;100.00;101678.56;5093808;28;20091;-74
2022/10/30 03:19:19;;;;;;;16.40;9.70;;;;;;;11.55;100.00;101689.81;5092485;28;20051;-74
2022/10/30 03:21:44;;;;;;;20.70;10.43;;;;;;;11.42;100.00;101660.41;5093335;28;20038;-74
2022/10/30 03:24:09;;;;;;;18.02;10.13;;;;;;;11.52;100.00;101675.03;5093205;28;20414;-73
2022/10/30 03:26:35;;;;;;;18.63;10.35;;;;;;;11.57;100.00;101685.41;5093644;28;20060;-73
2022/10/30 03:29:00;;;;;;;22.27;10.60;;;;;;;11.57;100.00;101688.03;5094933;28;20027;-74
2022/10/30 03:31:25;;;;;;;23.25;10.50;;;;;;;11.59;100.00;101679.28;5092506;28;20031;-73
2022/10/30 03:33:50;;;;;;;22.20;11.27;;;;;;;11.61;100.00;101689.72;5094528;28;20417;-73
2022/10/30 03:36:16;;;;;;;21.90;10.32;;;;;;;11.44;100.00;101662.09;5093984;28;20483;-74
2022/10/30 03:38:41;;;;;;;20.77;10.35;;;;;;;11.61;100.00;101681.91;5092016;28;20035;-74
2022/10/30 03:41:07;;;;;;;17.50;10.07;;;;;;;11.56;100.00;101675.88;5093206;28;20489;-74
2022/10/30 03:43:33;;;;;;;20.55;9.90;;;;;;;11.60;100.00;101677.53;5092973;28;20483;-73
2022/10/30 03:45:58;;;;;;;19.25;10.15;;;;;;;11.57;100.00;101678.44;5094003;28;20107;-73
2022/10/30 03:48:26;;;;;;;16.38;9.63;;;;;;;11.61;100.00;101689.72;5093648;28;20044;-74
2022/10/30 03:50:53;;;;;;;19.73;10.23;;;;;;;11.59;100.00;101694.09;5094411;28;20035;-73
2022/10/30 03:53:18;;;;;;;19.63;11.05;;;;;;;11.56;100.00;101688.91;5090597;28;20073;-73
2022/10/30 03:55:44;;;;;;;22.20;10.30;;;;;;;11.56;100.00;101700.22;5094118;28;20095;-74
2022/10/30 03:58:09;;;;;;;19.38;10.05;;;;;;;11.57;100.00;101693.25;5091185;28;20098;-74
2022/10/30 04:00:35;;;;;;;20.73;10.20;;;;;;;11.52;100.00;101689.84;5091060;28;20035;-74
2022/10/30 04:03:00;;;;;;;21.55;10.55;;;;;;;11.53;100.00;101691.56;5093124;28;20107;-73
2022/10/30 04:05:27;;;;;;;17.08;9.73;;;;;;;11.50;100.00;101695.09;5093674;28;20039;-74
2022/10/30 04:07:57;;;;;;;19.55;10.60;;;;;;;11.49;100.00;101694.22;5091085;28;20012;-73
2022/10/30 04:10:22;;;;;;;22.52;10.88;;;;;;;11.53;100.00;101699.41;5089763;28;20029;-74
2022/10/30 04:12:48;;;;;;;21.63;9.75;;;;;;;11.52;100.00;101713.34;5093716;28;20085;-74
2022/10/30 04:15:13;;;;;;;21.85;10.02;;;;;;;11.45;100.00;101694.31;5092564;28;20008;-74
2022/10/30 04:17:38;;;;;;;25.20;10.45;;;;;;;11.49;100.00;101702.06;5091936;28;20087;-73
2022/10/30 04:20:04;;;;;;;18.48;10.30;;;;;;;11.48;100.00;101700.34;5090950;28;20057;-74
2022/10/30 04:22:30;;;;;;;22.77;10.02;;;;;;;11.46;100.00;101694.25;5090195;28;20043;-74
2022/10/30 04:24:55;;;;;;;24.30;11.02;;;;;;;11.40;100.00;101678.69;5091367;28;20563;-74
2022/10/30 04:27:20;;;;;;;25.38;10.93;;;;;;;11.46;100.00;101698.63;5092267;28;20157;-73
2022/10/30 04:29:46;;;;;;;20.65;10.68;;;;;;;11.44;100.00;101697.78;5093918;28;20039;-73
2022/10/30 04:32:11;;;;;;;22.40;10.90;;;;;;;11.44;100.00;101705.59;5092958;28;20052;-74
2022/10/30 04:34:38;;;;;;;23.23;10.70;;;;;;;11.45;100.00;101699.53;5093071;28;20471;-74
2022/10/30 04:37:04;;;;;;;21.92;10.27;;;;;;;11.43;100.00;101707.34;5088683;28;20099;-73
2022/10/30 04:39:29;;;;;;;21.88;10.52;;;;;;;11.43;100.00;101691.69;5092997;28;20475;-73
2022/10/30 04:41:55;;;;;;;20.30;10.60;;;;;;;11.40;100.00;101685.66;5092681;28;20028;-73
2022/10/30 04:44:20;;;;;;;15.70;9.25;;;;;;;11.40;100.00;101683.91;5093359;28;20027;-74
2022/10/30 04:46:45;;;;;;;20.83;9.85;;;;;;;11.38;100.00;101683.06;5092719;28;20437;-74
2022/10/30 04:49:10;;;;;;;23.70;9.98;;;;;;;11.36;100.00;101673.53;5090547;28;20031;-73
2022/10/30 04:51:36;;;;;;;16.33;9.65;;;;;;;11.34;100.00;101670.91;5093077;28;20114;-74
2022/10/30 04:54:01;;;;;;;20.42;9.82;;;;;;;11.30;100.00;101652.72;5091058;28;20030;-73
2022/10/30 04:56:26;;;;;;;19.52;9.75;;;;;;;11.37;100.00;101654.34;5088840;28;20047;-73
2022/10/30 04:58:52;;;;;;;17.90;9.68;;;;;;;11.36;100.00;101657.88;5092829;28;20028;-74
2022/10/30 05:01:18;;;;;;;19.63;10.25;;;;;;;11.36;100.00;101674.38;5092300;28;20436;-74
2022/10/30 05:03:43;;;;;;;21.13;11.15;;;;;;;11.39;100.00;101663.03;5090509;28;20122;-74
2022/10/30 05:06:24;;;;;;;26.25;11.32;;;;;;;11.32;100.00;101650.97;5092669;28;20114;-74
2022/10/30 05:08:49;;;;;;;17.77;10.55;;;;;;;11.37;100.00;101670.88;5090517;28;20438;-74
2022/10/30 05:11:15;;;;;;;24.30;10.50;;;;;;;11.36;100.00;101674.38;5091420;28;20489;-74
2022/10/30 05:13:40;;;;;;;16.88;10.38;;;;;;;11.34;100.00;101665.69;5092782;28;20047;-73
2022/10/30 05:16:06;;;;;;;20.05;11.20;;;;;;;11.29;100.00;101667.53;5089979;28;20024;-74
2022/10/30 05:18:31;;;;;;;19.40;11.07;;;;;;;11.25;100.00;101664.09;5091740;28;20028;-74
2022/10/30 05:20:56;;;;;;;16.65;10.98;;;;;;;11.19;100.00;101660.72;5092347;28;20047;-74
2022/10/30 05:23:22;;;;;;;19.73;11.35;;;;;;;11.18;100.00;101674.63;5090471;28;20071;-74
2022/10/30 05:25:47;;;;;;;24.27;10.98;;;;;;;11.17;100.00;101670.28;5092480;28;20024;-73
2022/10/30 05:28:12;;;;;;;19.95;10.65;;;;;;;11.16;100.00;101676.41;5091941;28;20471;-74
2022/10/30 05:30:38;;;;;;;23.13;10.48;;;;;;;11.07;100.00;101663.47;5090876;28;20376;-74
2022/10/30 05:33:05;;;;;;;26.40;10.57;;;;;;;11.06;100.00;101680.00;5092034;28;20028;-74
2022/10/30 05:35:32;;;;;;;20.15;10.75;;;;;;;11.09;100.00;101686.06;5091284;28;20024;-74
2022/10/30 05:37:58;;;;;;;22.27;11.07;;;;;;;11.08;100.00;101689.53;5089855;28;20028;-73
2022/10/30 05:40:24;;;;;;;17.48;10.23;;;;;;;11.07;100.00;101681.72;5090691;28;20051;-73
2022/10/30 05:42:50;;;;;;;20.75;10.38;;;;;;;10.99;100.00;101669.66;5091971;28;20439;-74
2022/10/30 05:45:16;;;;;;;19.88;10.32;;;;;;;10.95;100.00;101673.19;5090664;28;20085;-74
2022/10/30 05:47:42;;;;;;;21.95;10.10;;;;;;;10.93;100.00;101680.16;5090925;28;20040;-74
2022/10/30 05:50:08;;;;;;;25.02;10.15;;;;;;;10.91;100.00;101681.91;5090994;28;20479;-74
2022/10/30 05:52:33;;;;;;;24.63;10.68;;;;;;;10.86;100.00;101678.50;5089292;28;21750;-73
2022/10/30 05:54:59;;;;;;;23.02;10.35;;;;;;;10.85;100.00;101681.09;5090933;28;20034;-74
2022/10/30 05:57:28;;;;;;;23.15;10.93;;;;;;;10.81;100.00;101676.81;5090914;28;20399;-74
2022/10/30 05:59:54;;;;;;;20.77;10.70;;;;;;;10.77;100.00;101670.78;5091223;28;20535;-73
2022/10/30 06:02:20;;;;;;;20.40;11.95;;;;;;;10.72;100.00;101676.00;5089935;28;20111;-73
2022/10/30 06:04:45;;;;;;;22.08;10.52;;;;;;;10.70;100.00;101682.16;5092025;28;20055;-74
2022/10/30 06:07:10;;;;;;;18.27;11.23;;;;;;;10.67;100.00;101685.66;5088373;28;20467;-73
2022/10/30 06:09:36;;;;;;;18.42;11.60;;;;;;;10.59;100.00;101665.75;5090679;28;20032;-73
2022/10/30 06:12:01;;;;;;;22.67;11.15;;;;;;;10.60;100.00;101673.56;5090892;28;20060;-73
2022/10/30 06:14:26;;;;;;;19.88;11.38;;;;;;;10.55;100.00;101675.34;5088643;28;20485;-74
2022/10/30 06:16:52;;;;;;;18.85;10.77;;;;;;;10.56;100.00;101687.47;5089432;28;20039;-74
2022/10/30 06:19:17;;;;;;;21.90;10.90;;;;;;;10.42;100.00;101665.91;5090964;28;20059;-73
2022/10/30 06:21:42;;;;;;;26.85;11.13;;;;;;;10.51;100.00;101681.47;5092713;28;20092;-73
2022/10/30 06:24:08;;;;;;;18.60;11.38;;;;;;;10.43;100.00;101671.13;5094121;28;20036;-73
2022/10/30 06:26:33;;;;;;;18.02;10.25;;;;;;;10.46;100.00;101678.91;5094150;28;20032;-73
2022/10/30 06:28:58;;;;;;;17.75;9.30;;;;;;;10.44;100.00;101674.59;5094986;28;20485;-73
2022/10/30 06:31:23;;;;;;;19.05;10.35;;;;;;;10.39;100.00;101666.78;5094037;28;20032;-73
2022/10/30 06:33:49;;;;;;;21.92;10.35;;;;;;;10.40;100.00;101676.38;5094649;28;20020;-73
2022/10/30 06:36:16;;;;;;;17.15;10.55;;;;;;;10.38;100.00;101679.84;5088273;28;20169;-73
2022/10/30 06:38:41;;;;;;;17.13;10.40;;;;;;;10.37;100.00;101668.56;5094339;28;20101;-73
2022/10/30 06:41:06;;;;;;;22.42;10.75;;;;;;;10.32;100.00;101667.75;5093484;28;20024;-73
2022/10/30 06:43:32;;;;;;;19.35;10.55;;;;;;;10.32;100.00;101660.78;5095144;28;20028;-73
2022/10/30 06:45:57;;;;;;;22.20;11.38;;;;;;;10.35;100.00;101677.28;5095355;28;20501;-73
2022/10/30 06:48:22;;;;;;;23.95;11.07;;;;;;;10.34;100.00;101676.41;5093752;28;20051;-73
2022/10/30 06:50:55;;;;;;;21.00;11.65;;;;;;;10.32;100.00;101671.19;5093299;28;20024;-74
2022/10/30 06:53:21;;;;;;;23.08;11.52;;;;;;;10.31;100.00;101666.88;5093297;28;20036;-73
2022/10/30 06:56:00;;;;;;;20.70;11.77;;;;;;;10.37;100.00;101672.94;5093690;28;20032;-73
2022/10/30 06:58:26;;;;;;;26.67;12.95;;;;;;;10.38;100.00;101664.22;5093897;28;20036;-73
2022/10/30 07:00:51;;;;;;;25.58;13.48;;;;;;;10.37;100.00;101663.38;5094108;28;20038;-73
2022/10/30 07:03:17;;;;;;;24.10;12.43;;;;;;;10.44;100.00;101648.53;5093858;28;20063;-74
2022/10/30 07:05:42;;;;;;;25.13;12.63;;;;;;;10.48;100.00;101651.06;5092391;28;20020;-73
2022/10/30 07:08:08;;;;;;;21.08;11.95;;;;;;;10.53;100.00;101653.66;5092944;28;20036;-73
2022/10/30 07:10:33;;;;;;;21.25;11.15;;;;;;;10.53;100.00;101646.69;5094311;28;20158;-73
2022/10/30 07:12:58;;;;;;;22.73;11.85;;;;;;;10.63;100.00;101654.41;5094311;28;20024;-74
2022/10/30 07:15:25;;;;;;;24.25;11.73;;;;;;;10.64;100.00;101663.97;5095404;28;20177;-73
2022/10/30 07:17:55;;;;;;;20.42;10.90;;;;;;;10.63;100.00;101646.59;5092914;28;20031;-74
2022/10/30 07:20:20;;;;;;;16.08;10.20;;;;;;;10.71;100.00;101658.66;5093312;28;20484;-73
2022/10/30 07:22:45;;;;;;;18.92;11.07;;;;;;;10.70;100.00;101653.47;5093849;28;20058;-74
2022/10/30 07:25:11;;;;;;;16.98;11.20;;;;;;;10.72;100.00;101651.69;5092386;28;20035;-74
2022/10/30 07:27:53;;;;;;;22.63;12.80;;;;;;;10.76;100.00;101656.00;5094343;28;20059;-74
2022/10/30 07:30:21;;;;;;;23.25;11.90;;;;;;;10.81;100.00;101661.16;5094115;28;20543;-74
2022/10/30 07:33:05;;;;;;;21.92;11.23;;;;;;;10.85;100.00;101652.41;5093767;28;20353;-73
2022/10/30 07:35:32;;;;;;;21.00;11.18;;;;;;;10.89;100.00;101667.13;5088837;28;20555;-73
2022/10/30 07:38:02;;;;;;;20.52;12.35;;;;;;;10.91;100.00;101670.59;5089771;28;20039;-73
2022/10/30 07:40:28;;;;;;;21.10;12.10;;;;;;;10.98;100.00;101670.50;5094644;28;20025;-73
2022/10/30 07:42:58;;;;;;;19.42;11.20;;;;;;;11.03;100.00;101673.06;5094046;28;20031;-73
2022/10/30 07:45:23;;;;;;;20.35;11.13;;;;;;;11.07;100.00;101663.47;5093970;28;20108;-73
2022/10/30 07:47:49;;;;;;;25.13;11.85;;;;;;;11.08;100.00;101662.56;5093630;28;20104;-74
2022/10/30 07:50:14;;;;;;;21.13;11.48;;;;;;;11.11;100.00;101658.19;5093941;28;20114;-74
2022/10/30 07:52:39;;;;;;;21.48;10.93;;;;;;;11.11;100.00;101646.88;5093179;28;20039;-73
2022/10/30 07:55:05;;;;;;;20.60;11.35;;;;;;;11.18;100.00;101664.19;5094332;28;20116;-73
2022/10/30 07:57:37;;;;;;;22.70;11.68;;;;;;;11.21;100.00;101654.56;5090849;28;20526;-73
2022/10/30 08:00:05;;;;;;;22.17;12.18;;;;;;;11.25;100.00;101664.09;5093892;28;20020;-73
2022/10/30 08:02:31;;;;;;;21.38;11.48;;;;;;;11.31;100.00;101659.66;5094382;28;20035;-73
2022/10/30 08:04:56;;;;;;;22.67;12.15;;;;;;;11.33;100.00;101647.47;5094858;28;20028;-73
2022/10/30 08:07:21;;;;;;;26.23;12.48;;;;;;;11.47;100.00;101656.81;5093616;28;20028;-73
2022/10/30 08:09:47;;;;;;;19.85;11.75;;;;;;;11.53;100.00;101652.41;5094324;28;20525;-73
2022/10/30 08:12:12;;;;;;;21.35;11.40;;;;;;;11.60;100.00;101648.81;5093932;28;20020;-73
2022/10/30 08:14:37;;;;;;;23.23;11.60;;;;;;;11.69;100.00;101656.50;5094115;28;20020;-73
2022/10/30 08:17:04;;;;;;;17.88;11.18;;;;;;;11.77;100.00;101657.28;5094358;28;20107;-73
2022/10/30 08:19:29;;;;;;;21.42;11.15;;;;;;;11.82;100.00;101649.34;5095555;28;20085;-73
2022/10/30 08:21:55;;;;;;;25.92;11.52;;;;;;;11.87;100.00;101645.81;5092867;28;20035;-73
2022/10/30 08:24:21;;;;;;;23.50;11.02;;;;;;;11.90;100.00;101640.56;5091442;28;20032;-73
2022/10/30 08:26:46;;;;;;;28.05;11.52;;;;;;;12.05;100.00;101664.69;5093235;28;20103;-73
2022/10/30 08:29:11;;;;;;;21.35;11.45;;;;;;;12.14;100.00;101654.94;5091621;28;20046;-73
2022/10/30 08:31:36;;;;;;;30.52;11.80;;;;;;;12.27;100.00;101666.06;5093070;28;20051;-73
2022/10/30 08:34:03;;;;;;;22.60;11.27;;;;;;;12.41;100.00;101669.28;5089043;28;20387;-73
2022/10/30 08:36:28;;;;;;;19.60;10.68;;;;;;;12.50;100.00;101675.25;5092906;28;20391;-74
2022/10/30 08:38:53;;;;;;;18.63;10.23;;;;;;;12.54;100.00;101656.84;5091156;28;20106;-74
2022/10/30 08:41:19;;;;;;;22.05;10.90;;;;;;;12.58;100.00;101650.66;5093095;28;20032;-73
2022/10/30 08:43:44;;;;;;;18.60;10.75;;;;;;;12.63;100.00;101653.22;5092221;28;20016;-73
2022/10/30 08:46:09;;;;;;;24.10;11.00;;;;;;;12.66;100.00;101658.38;5094045;28;20016;-73
2022/10/30 08:48:34;;;;;;;20.92;10.65;;;;;;;12.74;100.00;101653.84;5091884;28;20040;-73
2022/10/30 08:51:00;;;;;;;24.58;10.63;;;;;;;12.84;100.00;101657.16;5092405;28;20020;-73
2022/10/30 08:53:26;;;;;;;20.33;10.23;;;;;;;12.88;100.00;101651.84;5087820;28;20046;-73
2022/10/30 08:55:51;;;;;;;20.00;10.73;;;;;;;12.96;100.00;101641.22;5088496;28;20102;-74
2022/10/30 08:58:16;;;;;;;19.25;9.48;;;;;;;13.20;100.00;101650.28;5091289;28;20020;-73
2022/10/30 09:00:42;;;;;;;21.05;10.25;;;;;;;13.32;100.00;101651.81;5093036;28;20372;-73
2022/10/30 09:03:07;;;;;;;16.98;9.55;;;;;;;13.47;100.00;101654.13;5091473;28;20035;-74
2022/10/30 09:05:32;;;;;;;23.13;10.60;;;;;;;13.61;100.00;101661.66;5092412;28;20080;-73
2022/10/30 09:07:59;;;;;;;21.02;9.70;;;;;;;13.84;100.00;101652.41;5092717;28;20406;-73
2022/10/30 09:10:25;;;;;;;18.48;10.00;;;;;;;14.04;100.00;101639.66;5090102;28;20379;-73
2022/10/30 09:12:58;;;;;;;19.50;9.35;;;;;;;14.24;100.00;101636.50;5093604;28;20187;-73
2022/10/30 09:15:24;;;;;;;18.13;9.60;;;;;;;14.46;100.00;101628.94;5108069;28;20031;-73
2022/10/30 09:17:56;;;;;;;15.07;9.20;;;;;;;14.75;100.00;101629.03;5113790;28;20015;-73
2022/10/30 09:20:28;;;;;;;14.82;8.82;;;;;;;14.99;100.00;101634.47;5097678;28;20127;-73
2022/10/30 09:22:54;;;;;;;21.13;9.18;;;;;;;15.15;100.00;101625.25;5102925;28;20592;-73
2022/10/30 09:25:20;;;;;;;18.60;8.73;;;;;;;15.31;100.00;101627.41;5099549;28;20107;-73
2022/10/30 09:27:46;;;;;;;15.73;8.70;;;;;;;15.32;100.00;101624.72;5108805;28;20032;-73
2022/10/30 09:30:12;;;;;;;16.90;9.02;;;;;;;15.42;100.00;101627.94;5087859;28;20042;-74
2022/10/30 09:32:38;;;;;;;14.35;7.93;;;;;;;15.36;100.00;101622.84;5094886;28;20032;-74
2022/10/30 09:35:04;;;;;;;18.13;8.25;;;;;;;15.37;100.00;101625.44;5093060;28;20027;-74
2022/10/30 09:37:33;;;;;;;16.38;8.63;;;;;;;15.36;100.00;101636.00;5108049;28;20111;-73
2022/10/30 09:39:58;;;;;;;16.65;8.20;;;;;;;15.36;100.00;101630.72;5101045;28;20494;-73
2022/10/30 09:42:43;;;;;;;16.63;8.60;;;;;;;15.32;100.00;101637.84;5092352;28;20108;-74
2022/10/30 09:45:46;;;;;;;14.48;8.13;;;;;;;15.24;100.00;101642.50;5092329;28;20024;-72
2022/10/30 09:48:24;;;;;;;17.10;8.00;;;;;;;15.15;100.00;101648.88;5081199;28;20101;-74
2022/10/30 09:51:26;;;;;;;15.45;7.70;;;;;;;15.14;100.00;101667.28;5086922;28;20043;-73
2022/10/30 09:54:10;;;;;;;18.95;8.43;;;;;;;15.10;100.00;101670.91;5092485;28;20106;-73
2022/10/30 09:56:43;;;;;;;17.15;8.63;;;;;;;15.12;100.00;101674.38;5100293;28;20545;-73
2022/10/30 09:59:38;;;;;;;17.63;8.82;;;;;;;15.13;100.00;101668.19;5112559;28;20050;-73
2022/10/30 10:02:19;;;;;;;14.85;8.25;;;;;;;15.10;100.00;101671.78;5091986;28;20415;-73
2022/10/30 10:04:51;;;;;;;19.90;8.40;;;;;;;15.05;100.00;101667.59;5091988;28;20024;-73
2022/10/30 10:07:35;;;;;;;17.83;8.00;;;;;;;15.01;100.00;101674.69;5099935;28;20482;-73
2022/10/30 10:10:05;;;;;;;16.35;8.23;;;;;;;14.97;100.00;101657.28;5087322;28;20390;-73
2022/10/30 10:12:39;;;;;;;18.73;8.50;;;;;;;15.03;100.00;101651.84;5111730;28;20028;-73
2022/10/30 10:15:13;;;;;;;17.67;8.48;;;;;;;15.07;100.00;101656.09;5102877;28;20493;-73
2022/10/30 10:17:43;;;;;;;15.45;8.43;;;;;;;15.10;100.00;101660.41;5092318;28;20111;-73
2022/10/30 10:20:32;;;;;;;17.80;8.10;;;;;;;15.11;100.00;101660.38;5111833;28;20164;-73
2022/10/30 10:23:00;;;;;;;17.40;8.02;;;;;;;15.17;100.00;101651.44;5098508;28;20479;-78
2022/10/30 10:25:28;;;;;;;16.58;7.97;;;;;;;15.23;100.00;101644.25;5102262;28;20028;-79
2022/10/30 10:28:12;;;;;;;16.60;8.23;;;;;;;15.28;100.00;101646.75;5103345;28;20497;-73
2022/10/30 10:31:26;;;;;;;19.75;8.13;;;;;;;15.34;100.00;101638.69;5104636;28;20031;-73
2022/10/30 10:34:07;;;;;;;21.20;8.43;;;;;;;15.36;100.00;101639.47;5095288;28;20048;-73
2022/10/30 10:36:44;;;;;;;14.80;7.35;;;;;;;15.43;100.00;101642.78;5098598;28;20036;-73
2022/10/30 10:39:24;;;;;;;18.88;8.07;;;;;;;15.52;100.00;101642.50;5090521;28;20028;-74
2022/10/30 10:42:15;;;;;;;13.63;7.90;;;;;;;15.54;100.00;101634.56;5088949;28;20035;-73
2022/10/30 10:44:49;;;;;;;16.67;7.25;;;;;;;15.54;100.00;101637.22;5092885;28;20081;-73
2022/10/30 10:47:36;;;;;;;19.15;8.20;;;;;;;15.54;100.00;101640.69;5091763;28;20132;-74
2022/10/30 10:50:20;;;;;;;14.38;7.90;;;;;;;15.56;100.00;101646.72;5084263;28;20032;-73
2022/10/30 10:52:51;;;;;;;17.42;7.63;;;;;;;15.64;100.00;101639.47;5094969;28;20027;-73
2022/10/30 10:55:20;;;;;;;13.60;7.80;;;;;;;15.73;100.00;101642.75;5111196;28;20025;-73
2022/10/30 10:57:46;;;;;;;18.38;8.45;;;;;;;15.84;100.00;101648.53;5112513;28;20027;-73
2022/10/30 11:00:22;;;;;;;22.65;8.15;;;;;;;15.75;100.00;101633.06;5112185;28;20047;-74
2022/10/30 11:02:53;;;;;;;16.35;8.38;;;;;;;15.88;100.00;101653.63;5111669;28;20058;-73
2022/10/30 11:05:42;;;;;;;17.13;7.50;;;;;;;15.96;100.00;101648.13;5112082;28;20065;-73
2022/10/30 11:08:31;;;;;;;22.25;8.82;;;;;;;16.07;100.00;101640.75;5113278;28;20019;-73
2022/10/30 11:11:05;;;;;;;17.98;8.35;;;;;;;16.23;100.00;101634.97;5116170;28;20023;-74
2022/10/30 11:13:34;;;;;;;17.85;8.00;;;;;;;16.30;100.00;101633.84;5115628;28;20176;-73